createdAt,value
2018-12-14T00:00:54.461Z,0.19
2018-12-14T00:03:22.412Z,0.10
2018-12-14T00:05:50.435Z,-0.04
2018-12-14T00:08:18.428Z,-0.11
2018-12-14T00:10:46.466Z,-0.26
2018-12-14T00:13:14.483Z,-0.34
2018-12-14T00:15:42.547Z,-0.40
2018-12-14T00:18:10.531Z,-0.49
2018-12-14T00:20:38.515Z,-0.59
2018-12-14T00:23:06.542Z,-0.63
2018-12-14T00:25:34.500Z,-0.63
2018-12-14T00:28:02.452Z,-0.68
2018-12-14T00:30:30.449Z,-0.71
2018-12-14T00:32:58.481Z,-0.76
2018-12-14T00:35:26.911Z,-0.75
2018-12-14T00:37:54.997Z,-0.84
2018-12-14T00:40:23.024Z,-0.93
2018-12-14T00:42:51.102Z,-1.01
2018-12-14T00:45:19.233Z,-0.99
2018-12-14T00:47:47.227Z,-0.96
2018-12-14T00:50:15.237Z,-0.92
2018-12-14T00:52:43.282Z,-0.96
2018-12-14T00:55:11.275Z,-0.94
2018-12-14T00:57:39.257Z,-0.92
2018-12-14T01:00:09.238Z,-0.93
2018-12-14T01:02:37.248Z,-0.93
2018-12-14T01:05:05.833Z,-0.90
2018-12-14T01:07:33.873Z,-0.96
2018-12-14T01:10:01.871Z,-0.96
2018-12-14T01:12:29.864Z,-0.93
2018-12-14T01:14:57.843Z,-0.91
2018-12-14T01:17:25.865Z,-0.88
2018-12-14T01:19:53.843Z,-0.90
2018-12-14T01:22:21.889Z,-0.83
2018-12-14T01:24:49.871Z,-0.90
2018-12-14T01:27:17.888Z,-0.84
2018-12-14T01:29:45.919Z,-0.88
2018-12-14T01:32:13.944Z,-0.87
2018-12-14T01:34:42.222Z,-0.90
2018-12-14T01:37:10.169Z,-0.89
2018-12-14T01:39:38.183Z,-0.89
2018-12-14T01:42:06.152Z,-0.96
2018-12-14T01:44:34.190Z,-0.89
2018-12-14T01:47:02.180Z,-0.96
2018-12-14T01:49:30.237Z,-0.99
2018-12-14T01:51:58.296Z,-1.06
2018-12-14T01:54:26.364Z,-1.06
2018-12-14T01:56:54.346Z,-1.15
2018-12-14T01:59:22.384Z,-1.13
2018-12-14T02:01:50.350Z,-1.16
2018-12-14T02:04:18.316Z,-1.07
2018-12-14T02:06:46.483Z,-1.05
2018-12-14T02:09:14.440Z,-1.06
2018-12-14T02:11:42.370Z,-1.10
2018-12-14T02:14:10.373Z,-1.15
2018-12-14T02:16:38.327Z,-1.15
2018-12-14T02:19:06.405Z,-1.07
2018-12-14T02:21:34.427Z,-1.16
2018-12-14T02:24:02.361Z,-1.19
2018-12-14T02:26:30.389Z,-1.20
2018-12-14T02:28:58.384Z,-1.17
2018-12-14T02:31:26.377Z,-1.12
2018-12-14T02:33:54.436Z,-1.16
2018-12-14T02:36:22.427Z,-1.19
2018-12-14T02:38:50.416Z,-1.04
2018-12-14T02:41:18.439Z,-0.97
2018-12-14T02:43:46.577Z,-1.00
2018-12-14T02:46:14.529Z,-0.93
2018-12-14T02:48:42.502Z,-0.99
2018-12-14T02:51:10.508Z,-1.06
2018-12-14T02:53:38.430Z,-1.07
2018-12-14T02:56:06.368Z,-0.99
2018-12-14T02:58:34.336Z,-1.13
2018-12-14T03:01:02.339Z,-1.11
2018-12-14T03:03:30.290Z,-1.25
2018-12-14T03:05:58.362Z,-1.25
2018-12-14T03:08:26.339Z,-1.21
2018-12-14T03:10:54.402Z,-1.29
2018-12-14T03:13:22.396Z,-1.32
2018-12-14T03:15:50.401Z,-1.31
2018-12-14T03:18:18.310Z,-1.32
2018-12-14T03:20:46.430Z,-1.28
2018-12-14T03:23:14.655Z,-1.35
2018-12-14T03:25:43.275Z,-1.32
2018-12-14T03:28:11.389Z,-1.29
2018-12-14T03:30:39.521Z,-1.35
2018-12-14T03:33:07.478Z,-1.31
2018-12-14T03:35:35.408Z,-1.27
2018-12-14T03:38:03.596Z,-1.26
2018-12-14T03:40:31.670Z,-1.24
2018-12-14T03:42:59.691Z,-1.25
2018-12-14T03:45:27.792Z,-1.21
2018-12-14T03:47:55.795Z,-1.21
2018-12-14T03:50:23.743Z,-1.20
2018-12-14T03:52:51.715Z,-1.19
2018-12-14T03:55:19.712Z,-1.14
2018-12-14T03:57:47.713Z,-1.19
2018-12-14T04:00:15.849Z,-1.18
2018-12-14T04:02:43.977Z,-1.19
2018-12-14T04:05:12.010Z,-1.11
2018-12-14T04:07:40.088Z,-1.00
2018-12-14T04:10:08.091Z,-1.19
2018-12-14T04:12:41.549Z,-1.16
2018-12-14T04:15:06.374Z,-1.20
2018-12-14T04:17:34.356Z,-1.05
2018-12-14T04:20:02.379Z,-1.03
2018-12-14T04:22:30.513Z,-1.09
2018-12-14T04:24:58.552Z,-1.11
2018-12-14T04:27:26.536Z,-1.25
2018-12-14T04:29:54.844Z,-1.25
2018-12-14T04:32:23.075Z,-1.32
2018-12-14T04:34:51.814Z,-1.33
2018-12-14T04:37:19.854Z,-1.21
2018-12-14T04:39:47.873Z,-1.17
2018-12-14T04:42:15.885Z,-1.24
2018-12-14T04:44:43.868Z,-1.25
2018-12-14T04:47:12.131Z,-1.24
2018-12-14T04:49:40.361Z,-1.25
2018-12-14T04:52:11.335Z,-1.28
2018-12-14T04:54:39.502Z,-1.14
2018-12-14T04:57:07.607Z,-1.13
2018-12-14T04:59:35.829Z,-0.99
2018-12-14T05:02:04.229Z,-1.05
2018-12-14T05:04:32.375Z,-1.11
2018-12-14T05:07:00.416Z,-1.11
2018-12-14T05:09:28.500Z,-1.06
2018-12-14T05:11:56.983Z,-1.06
2018-12-14T05:14:25.592Z,-1.12
2018-12-14T05:16:53.778Z,-1.14
2018-12-14T05:19:21.808Z,-1.00
2018-12-14T05:21:50.092Z,-1.08
2018-12-14T05:24:18.221Z,-1.10
2018-12-14T05:26:46.430Z,-1.15
2018-12-14T05:29:14.553Z,-1.19
2018-12-14T05:31:42.717Z,-1.21
2018-12-14T05:34:10.832Z,-1.15
2018-12-14T05:36:38.865Z,-1.10
2018-12-14T05:39:07.207Z,-1.17
2018-12-14T05:41:35.274Z,-1.16
2018-12-14T05:44:03.515Z,-1.15
2018-12-14T05:46:31.719Z,-1.16
2018-12-14T05:48:59.912Z,-1.00
2018-12-14T05:51:28.035Z,-0.86
2018-12-14T05:53:56.181Z,-0.94
2018-12-14T05:56:25.007Z,-0.88
2018-12-14T05:58:53.108Z,-0.95
2018-12-14T06:01:21.245Z,-1.03
2018-12-14T06:03:51.532Z,-0.92
2018-12-14T06:06:19.887Z,-0.80
2018-12-14T06:08:48.226Z,-0.76
2018-12-14T06:11:17.017Z,-0.79
2018-12-14T06:13:45.433Z,-0.67
2018-12-14T06:16:13.564Z,-0.61
2018-12-14T06:18:41.825Z,-0.51
2018-12-14T06:21:10.006Z,-0.48
2018-12-14T06:23:38.379Z,-0.24
2018-12-14T06:26:06.489Z,-0.29
2018-12-14T06:28:34.735Z,-0.27
2018-12-14T06:31:02.865Z,-0.14
2018-12-14T06:33:31.078Z,-0.15
2018-12-14T06:35:59.742Z,-0.14
2018-12-14T06:38:28.175Z,-0.05
2018-12-14T06:40:58.199Z,-0.01
2018-12-14T06:43:26.811Z,-0.08
2018-12-14T06:45:55.008Z,-0.09
2018-12-14T06:48:23.146Z,-0.07
2018-12-14T06:50:51.636Z,-0.04
2018-12-14T06:53:20.109Z,-0.08
2018-12-14T06:55:48.532Z,0.05
2018-12-14T06:58:17.104Z,0.24
2018-12-14T07:00:45.287Z,0.11
2018-12-14T07:03:13.490Z,0.04
2018-12-14T07:05:41.650Z,0.14
2018-12-14T07:08:11.043Z,0.14
2018-12-14T07:10:39.274Z,0.10
2018-12-14T07:13:07.723Z,0.18
2018-12-14T07:15:36.235Z,0.24
2018-12-14T07:18:04.455Z,0.45
2018-12-14T07:20:33.504Z,0.48
2018-12-14T07:23:01.775Z,0.53
2018-12-14T07:25:30.028Z,0.63
2018-12-14T07:27:58.557Z,0.56
2018-12-14T07:30:26.908Z,0.70
2018-12-14T07:32:55.195Z,0.70
2018-12-14T07:35:23.476Z,0.68
2018-12-14T07:37:51.691Z,0.83
2018-12-14T07:40:20.037Z,0.77
2018-12-14T07:42:48.255Z,0.80
2018-12-14T07:45:16.763Z,0.73
2018-12-14T07:47:45.204Z,0.59
2018-12-14T07:50:32.942Z,0.57
2018-12-14T07:53:01.390Z,0.57
2018-12-14T07:55:46.127Z,0.39
2018-12-14T07:58:16.453Z,0.48
2018-12-14T08:00:44.594Z,0.55
2018-12-14T08:03:14.662Z,0.46
2018-12-14T08:05:43.381Z,0.77
2018-12-14T08:08:12.031Z,0.80
2018-12-14T08:10:40.612Z,0.77
2018-12-14T08:13:08.860Z,1.05
2018-12-14T08:15:37.305Z,1.04
2018-12-14T08:18:05.558Z,1.37
2018-12-14T08:20:34.089Z,1.36
2018-12-14T08:23:02.544Z,1.26
2018-12-14T08:25:30.804Z,1.21
2018-12-14T08:27:59.072Z,1.30
2018-12-14T08:30:28.249Z,1.29
2018-12-14T08:32:56.417Z,1.33
2018-12-14T08:35:24.793Z,1.50
2018-12-14T08:37:53.004Z,1.70
2018-12-14T08:40:21.416Z,1.72
2018-12-14T08:42:50.158Z,1.66
2018-12-14T08:45:18.514Z,1.60
2018-12-14T08:47:47.143Z,1.58
2018-12-14T08:50:15.513Z,1.49
2018-12-14T08:52:45.225Z,1.54
2018-12-14T08:55:14.005Z,1.58
2018-12-14T08:57:42.265Z,1.84
2018-12-14T09:00:10.966Z,1.84
2018-12-14T09:02:39.685Z,1.72
2018-12-14T09:05:08.986Z,1.63
2018-12-14T09:07:37.526Z,1.63
2018-12-14T09:10:06.921Z,1.63
2018-12-14T09:12:35.218Z,1.65
2018-12-14T09:15:03.795Z,1.57
2018-12-14T09:17:32.332Z,1.51
2018-12-14T09:20:01.453Z,1.67
2018-12-14T09:22:29.870Z,1.70
2018-12-14T09:24:57.966Z,1.80
2018-12-14T09:27:26.233Z,2.11
2018-12-14T09:29:54.658Z,1.98
2018-12-14T09:32:22.998Z,2.03
2018-12-14T09:34:51.261Z,2.36
2018-12-14T09:37:19.376Z,2.16
2018-12-14T09:39:47.566Z,2.25
2018-12-14T09:42:17.778Z,2.18
2018-12-14T09:44:46.062Z,2.09
2018-12-14T09:47:14.247Z,2.47
2018-12-14T09:49:42.581Z,2.65
2018-12-14T09:52:10.816Z,2.66
2018-12-14T09:54:39.033Z,2.64
2018-12-14T09:57:07.295Z,2.45
2018-12-14T09:59:35.480Z,2.26
2018-12-14T10:02:03.465Z,2.04
2018-12-14T10:04:31.375Z,2.18
2018-12-14T10:06:59.454Z,2.16
2018-12-14T10:09:27.512Z,2.13
2018-12-14T10:11:55.685Z,2.12
2018-12-14T10:14:23.801Z,2.18
2018-12-14T10:16:52.018Z,1.97
2018-12-14T10:19:20.361Z,1.94
2018-12-14T10:21:48.284Z,1.95
2018-12-14T10:24:16.257Z,2.01
2018-12-14T10:26:44.199Z,2.29
2018-12-14T10:29:12.353Z,1.94
2018-12-14T10:31:40.594Z,2.02
2018-12-14T10:34:08.670Z,2.00
2018-12-14T10:36:36.778Z,1.92
2018-12-14T10:39:05.697Z,1.69
2018-12-14T10:41:33.718Z,1.62
2018-12-14T10:44:07.457Z,1.59
2018-12-14T10:46:31.965Z,1.36
2018-12-14T10:49:00.004Z,1.62
2018-12-14T10:51:28.617Z,1.51
2018-12-14T10:53:56.809Z,1.66
2018-12-14T10:56:25.008Z,1.54
2018-12-14T10:58:53.190Z,1.75
2018-12-14T11:01:26.818Z,1.83
2018-12-14T11:03:54.967Z,1.89
2018-12-14T11:06:23.134Z,2.03
2018-12-14T11:08:51.555Z,2.22
2018-12-14T11:11:19.829Z,2.14
2018-12-14T11:13:48.053Z,1.98
2018-12-14T11:16:16.510Z,1.89
2018-12-14T11:18:44.712Z,1.53
2018-12-14T11:21:13.082Z,1.47
2018-12-14T11:23:41.311Z,1.66
2018-12-14T11:26:09.695Z,1.29
2018-12-14T11:28:38.003Z,1.21
2018-12-14T11:31:06.358Z,1.15
2018-12-14T11:33:34.574Z,1.21
2018-12-14T11:36:03.038Z,1.38
2018-12-14T11:38:31.244Z,1.70
2018-12-14T11:40:59.413Z,1.70
2018-12-14T11:43:27.590Z,1.67
2018-12-14T11:45:55.860Z,1.43
2018-12-14T11:48:24.070Z,1.42
2018-12-14T11:50:52.501Z,1.50
2018-12-14T11:53:21.045Z,1.56
2018-12-14T11:55:49.734Z,1.54
2018-12-14T11:58:19.389Z,1.46
2018-12-14T12:00:48.363Z,1.58
2018-12-14T12:03:19.584Z,1.47
2018-12-14T12:05:51.489Z,1.48
2018-12-14T12:08:23.030Z,1.38
2018-12-14T12:10:51.693Z,1.40
2018-12-14T12:13:20.300Z,1.42
2018-12-14T12:15:48.578Z,1.41
2018-12-14T12:18:17.244Z,1.43
2018-12-14T12:20:45.642Z,1.53
2018-12-14T12:23:13.830Z,1.58
2018-12-14T12:25:42.087Z,1.61
2018-12-14T12:28:10.369Z,1.64
2018-12-14T12:30:38.485Z,1.47
2018-12-14T12:33:06.873Z,1.20
2018-12-14T12:35:34.987Z,1.20
2018-12-14T12:38:03.200Z,1.10
2018-12-14T12:40:31.485Z,1.26
2018-12-14T12:42:59.727Z,1.19
2018-12-14T12:45:27.989Z,1.23
2018-12-14T12:47:56.282Z,1.37
2018-12-14T12:50:24.900Z,1.36
2018-12-14T12:52:53.174Z,1.31
2018-12-14T12:55:21.425Z,1.24
2018-12-14T12:57:49.704Z,1.21
2018-12-14T13:00:18.268Z,1.20
2018-12-14T13:02:46.746Z,1.21
2018-12-14T13:05:15.010Z,1.22
2018-12-14T13:07:43.359Z,1.20
2018-12-14T13:10:11.880Z,1.16
2018-12-14T13:12:40.346Z,1.07
2018-12-14T13:15:09.232Z,0.91
2018-12-14T13:17:37.711Z,0.85
2018-12-14T13:20:06.338Z,0.83
2018-12-14T13:22:34.699Z,0.85
2018-12-14T13:25:03.186Z,0.82
2018-12-14T13:27:31.465Z,0.82
2018-12-14T13:29:59.826Z,0.91
2018-12-14T13:32:28.509Z,1.05
2018-12-14T13:34:56.766Z,0.95
2018-12-14T13:37:25.099Z,1.06
2018-12-14T13:39:53.478Z,1.08
2018-12-14T13:42:21.740Z,0.89
2018-12-14T13:44:50.212Z,0.92
2018-12-14T13:47:18.530Z,0.73
2018-12-14T13:49:46.777Z,0.84
2018-12-14T13:52:15.058Z,0.78
2018-12-14T13:54:43.295Z,1.00
2018-12-14T13:57:11.391Z,0.92
2018-12-14T13:59:39.671Z,0.98
2018-12-14T14:02:07.909Z,0.86
2018-12-14T14:04:36.141Z,0.87
2018-12-14T14:07:04.414Z,0.85
2018-12-14T14:09:32.742Z,0.88
2018-12-14T14:12:00.946Z,0.91
2018-12-14T14:14:29.173Z,0.90
2018-12-14T14:16:57.533Z,0.96
2018-12-14T14:19:25.962Z,1.04
2018-12-14T14:21:54.158Z,0.98
2018-12-14T14:24:22.617Z,0.77
2018-12-14T14:26:51.791Z,0.70
2018-12-14T14:29:20.274Z,0.70
2018-12-14T14:31:48.642Z,0.63
2018-12-14T14:34:16.832Z,0.48
2018-12-14T14:36:45.029Z,0.45
2018-12-14T14:39:13.223Z,0.45
2018-12-14T14:41:41.311Z,0.41
2018-12-14T14:44:09.621Z,0.44
2018-12-14T14:46:37.946Z,0.34
2018-12-14T14:49:06.077Z,0.32
2018-12-14T14:51:34.630Z,0.33
2018-12-14T14:54:02.842Z,0.32
2018-12-14T14:56:31.248Z,0.37
2018-12-14T14:58:59.857Z,0.34
2018-12-14T15:01:28.574Z,0.31
2018-12-14T15:03:57.413Z,0.26
2018-12-14T15:06:25.873Z,0.29
2018-12-14T15:08:54.629Z,0.23
2018-12-14T15:11:22.883Z,0.23
2018-12-14T15:13:51.176Z,0.24
2018-12-14T15:16:19.425Z,0.21
2018-12-14T15:18:48.027Z,0.14
2018-12-14T15:21:16.499Z,0.16
2018-12-14T15:23:44.709Z,0.26
2018-12-14T15:26:12.869Z,0.24
2018-12-14T15:28:41.070Z,0.22
2018-12-14T15:31:09.456Z,0.23
2018-12-14T15:33:37.720Z,0.18
2018-12-14T15:36:05.965Z,0.29
2018-12-14T15:38:34.252Z,0.35
2018-12-14T15:41:02.641Z,0.32
2018-12-14T15:43:30.938Z,0.33
2018-12-14T15:45:59.470Z,0.38
2018-12-14T15:48:27.815Z,0.30
2018-12-14T15:50:56.282Z,0.30
2018-12-14T15:53:24.640Z,0.28
2018-12-14T15:55:52.939Z,0.25
2018-12-14T15:58:21.336Z,0.29
2018-12-14T16:00:49.659Z,0.38
2018-12-14T16:03:17.809Z,0.46
2018-12-14T16:05:45.921Z,0.49
2018-12-14T16:08:14.150Z,0.38
2018-12-14T16:10:42.206Z,0.35
2018-12-14T16:13:10.259Z,0.36
2018-12-14T16:15:38.515Z,0.42
2018-12-14T16:18:06.810Z,0.57
2018-12-14T16:20:34.956Z,0.51
2018-12-14T16:23:03.107Z,0.42
2018-12-14T16:25:31.240Z,0.47
2018-12-14T16:27:59.422Z,0.47
2018-12-14T16:30:27.469Z,0.49
2018-12-14T16:32:55.419Z,0.33
2018-12-14T16:35:23.368Z,0.32
2018-12-14T16:37:51.392Z,0.25
2018-12-14T16:40:19.433Z,0.29
2018-12-14T16:42:47.356Z,0.46
2018-12-14T16:45:15.268Z,0.53
2018-12-14T16:47:43.509Z,0.33
2018-12-14T16:50:11.580Z,0.38
2018-12-14T16:52:39.638Z,0.35
2018-12-14T16:55:08.294Z,0.39
2018-12-14T16:57:36.279Z,0.35
2018-12-14T17:00:04.631Z,0.30
2018-12-14T17:02:32.769Z,0.48
2018-12-14T17:05:00.819Z,0.48
2018-12-14T17:07:28.819Z,0.48
2018-12-14T17:09:56.727Z,0.51
2018-12-14T17:12:24.942Z,0.45
2018-12-14T17:14:52.891Z,0.48
2018-12-14T17:17:21.012Z,0.36
2018-12-14T17:19:49.089Z,0.39
2018-12-14T17:22:17.210Z,0.44
2018-12-14T17:24:45.344Z,0.42
2018-12-14T17:27:14.108Z,0.33
2018-12-14T17:29:42.421Z,0.29
2018-12-14T17:32:10.607Z,0.27
2018-12-14T17:34:38.934Z,0.25
2018-12-14T17:37:07.107Z,0.27
2018-12-14T17:39:35.231Z,0.31
2018-12-14T17:42:03.375Z,0.27
2018-12-14T17:44:31.542Z,0.22
2018-12-14T17:46:59.734Z,0.24
2018-12-14T17:49:28.019Z,0.28
2018-12-14T17:51:56.393Z,0.32
2018-12-14T17:54:24.444Z,0.29
2018-12-14T17:56:52.613Z,0.32
2018-12-14T17:59:20.703Z,0.23
2018-12-14T18:01:49.101Z,0.30
2018-12-14T18:04:17.932Z,0.26
2018-12-14T18:06:46.060Z,0.28
2018-12-14T18:09:14.100Z,0.26
2018-12-14T18:11:42.309Z,0.27
2018-12-14T18:14:10.420Z,0.36
2018-12-14T18:16:38.666Z,0.35
2018-12-14T18:19:06.765Z,0.49
2018-12-14T18:21:34.919Z,0.50
2018-12-14T18:24:03.060Z,1.14
2018-12-14T18:26:31.170Z,0.84
2018-12-14T18:29:00.187Z,0.65
2018-12-14T18:31:28.372Z,0.71
2018-12-14T18:33:56.441Z,0.58
2018-12-14T18:36:24.659Z,0.60
2018-12-14T18:38:52.959Z,0.59
2018-12-14T18:41:21.167Z,0.53
2018-12-14T18:43:49.292Z,0.50
2018-12-14T18:46:17.406Z,0.46
2018-12-14T18:48:45.484Z,0.47
2018-12-14T18:51:13.795Z,0.39
2018-12-14T18:53:46.436Z,0.36
2018-12-14T18:56:14.719Z,0.43
2018-12-14T18:58:42.794Z,0.48
2018-12-14T19:01:10.965Z,0.87
2018-12-14T19:03:39.050Z,0.83
2018-12-14T19:06:07.110Z,0.96
2018-12-14T19:08:35.248Z,1.27
2018-12-14T19:11:03.595Z,1.02
2018-12-14T19:13:31.668Z,0.85
2018-12-14T19:15:59.895Z,0.93
2018-12-14T19:18:28.240Z,0.80
2018-12-14T19:20:56.439Z,0.78
2018-12-14T19:23:24.897Z,0.71
2018-12-14T19:25:53.541Z,0.71
2018-12-14T19:28:21.897Z,0.62
2018-12-14T19:30:49.967Z,0.77
2018-12-14T19:33:18.381Z,0.97
2018-12-14T19:35:46.610Z,1.33
2018-12-14T19:38:14.741Z,1.40
2018-12-14T19:40:42.889Z,1.45
2018-12-14T19:43:10.947Z,1.69
2018-12-14T19:45:39.228Z,1.43
2018-12-14T19:48:07.200Z,1.21
2018-12-14T19:50:35.293Z,1.16
2018-12-14T19:53:03.437Z,1.16
2018-12-14T19:55:31.675Z,1.74
2018-12-14T19:58:00.169Z,1.68
2018-12-14T20:00:28.342Z,1.55
2018-12-14T20:02:56.532Z,1.56
2018-12-14T20:05:24.664Z,1.99
2018-12-14T20:07:52.828Z,1.68
2018-12-14T20:10:20.958Z,1.70
2018-12-14T20:12:49.331Z,1.31
2018-12-14T20:15:17.481Z,1.29
2018-12-14T20:17:45.684Z,1.39
2018-12-14T20:20:14.044Z,1.20
2018-12-14T20:22:42.069Z,2.02
2018-12-14T20:25:10.368Z,2.01
2018-12-14T20:27:38.652Z,1.73
2018-12-14T20:30:07.361Z,1.90
2018-12-14T20:32:35.408Z,1.48
2018-12-14T20:35:04.418Z,1.50
2018-12-14T20:37:32.473Z,1.45
2018-12-14T20:40:00.554Z,1.08
2018-12-14T20:42:28.673Z,0.98
2018-12-14T20:44:56.790Z,0.89
2018-12-14T20:47:25.063Z,0.87
2018-12-14T20:49:53.209Z,0.80
2018-12-14T20:52:21.547Z,0.76
2018-12-14T20:54:49.760Z,0.82
2018-12-14T20:57:17.957Z,0.69
2018-12-14T20:59:46.160Z,0.88
2018-12-14T21:02:14.386Z,1.05
2018-12-14T21:04:42.461Z,0.94
2018-12-14T21:07:11.029Z,0.93
2018-12-14T21:09:39.183Z,0.77
2018-12-14T21:12:07.404Z,0.78
2018-12-14T21:14:36.002Z,0.77
2018-12-14T21:17:04.087Z,0.80
2018-12-14T21:19:32.173Z,0.71
2018-12-14T21:22:00.128Z,0.69
2018-12-14T21:24:27.975Z,0.82
2018-12-14T21:26:55.979Z,0.98
2018-12-14T21:29:23.852Z,1.63
2018-12-14T21:31:52.043Z,1.93
2018-12-14T21:34:19.935Z,2.37
2018-12-14T21:36:48.006Z,2.57
2018-12-14T21:39:16.171Z,2.68
2018-12-14T21:41:44.090Z,2.81
2018-12-14T21:44:12.046Z,2.89
2018-12-14T21:46:39.880Z,2.96
2018-12-14T21:49:07.944Z,2.99
2018-12-14T21:51:35.929Z,2.90
2018-12-14T21:54:03.831Z,2.93
2018-12-14T21:56:31.729Z,3.18
2018-12-14T21:58:59.661Z,3.05
2018-12-14T22:01:27.522Z,3.08
2018-12-14T22:03:55.525Z,3.13
2018-12-14T22:06:23.536Z,3.09
2018-12-14T22:08:51.471Z,2.99
2018-12-14T22:11:19.585Z,3.01
2018-12-14T22:13:47.544Z,3.23
2018-12-14T22:16:15.511Z,3.18
2018-12-14T22:18:43.451Z,2.79
2018-12-14T22:21:11.836Z,3.11
2018-12-14T22:23:39.721Z,3.32
2018-12-14T22:26:08.466Z,3.25
2018-12-14T22:28:36.391Z,3.12
2018-12-14T22:31:04.524Z,3.45
2018-12-14T22:33:32.559Z,3.25
2018-12-14T22:36:00.421Z,3.38
2018-12-14T22:38:28.334Z,3.37
2018-12-14T22:40:56.400Z,3.21
2018-12-14T22:43:24.278Z,3.48
2018-12-14T22:45:52.278Z,3.56
2018-12-14T22:48:20.167Z,3.80
2018-12-14T22:50:48.038Z,3.64
2018-12-14T22:53:16.066Z,3.53
2018-12-14T22:55:43.998Z,3.56
2018-12-14T22:58:11.879Z,3.70
2018-12-14T23:00:45.398Z,3.53
2018-12-14T23:03:13.370Z,3.69
2018-12-14T23:05:41.268Z,3.74
2018-12-14T23:08:09.188Z,3.67
2018-12-14T23:10:37.082Z,3.50
2018-12-14T23:13:04.939Z,2.79
2018-12-14T23:15:32.831Z,2.52
2018-12-14T23:18:00.699Z,2.83
2018-12-14T23:20:28.588Z,2.73
2018-12-14T23:22:56.491Z,2.51
2018-12-14T23:25:24.353Z,3.02
2018-12-14T23:27:52.230Z,3.31
2018-12-14T23:30:21.047Z,3.28
2018-12-14T23:32:48.990Z,3.31
2018-12-14T23:35:16.842Z,3.22
2018-12-14T23:37:44.764Z,3.56
2018-12-14T23:40:12.778Z,3.57
2018-12-14T23:42:40.769Z,3.72
2018-12-14T23:45:08.948Z,3.86
2018-12-14T23:47:36.971Z,3.79
2018-12-14T23:50:04.982Z,3.94
2018-12-14T23:52:33.056Z,3.96
2018-12-14T23:55:01.053Z,4.11
2018-12-14T23:57:29.076Z,4.00
2018-12-14T23:59:57.186Z,4.04
